Utsunomiya, Japan
Current Conditions -  °F | °C
As of 10:00 PM on Friday 19 Dec 2014 (Local Time) from RJAH Reporting Station
Few Clouds Few Clouds  
Wind Chill: 28°   Ceiling: Unl
Heat Index: 28°   Visibility: 6mi
Dew Point: 25°   Wind: 1mph
Humidity: 86%   Direction: NA
Pressure: 30.36"   Gusts: NA
Location:  36.56°N, 139.89°E
Report Text: RJAH 191300Z VRB01KT 9999 FEW030 M02/M04 Q1028
Loading
Personal Weather Stations






























Interactive Weather Map New forecast layout! Learn more

10-Day Weather Forecast

Advertisements
Track Severe Weather on mobile